Time;durP1;ratioP1;P1;durP2;ratioP2;P2;SDS_P1;SDS_P2;PMS_P1;PMS_P2;Temp;Humidity;BMP_temperature;BMP_pressure;BME280_temperature;BME280_humidity;BME280_pressure;Samples;Min_cycle;Max_cycle;Signal;HPM_P1;HPM_P2
2021/05/31 00:00:25;;;;;;;13.75;10.15;;;12.90;99.90;;;;;;4762699;28;20519;-65
2021/05/31 00:04:31;;;;;;;16.42;10.40;;;13.20;99.90;;;;;;4690878;28;20190;-65
2021/05/31 00:15:46;;;;;;;18.88;11.50;;;12.90;99.90;;;;;;4693495;28;20539;-67
2021/05/31 00:22:37;;;;;;;14.73;11.15;;;13.00;99.90;;;;;;4693561;28;20635;-67
2021/05/31 00:25:46;;;;;;;15.85;10.35;;;13.00;99.90;;;;;;4698016;28;20571;-66
2021/05/31 00:29:11;;;;;;;15.10;10.30;;;12.80;99.90;;;;;;4668824;28;20734;-66
2021/05/31 00:32:57;;;;;;;12.25;9.63;;;12.80;99.90;;;;;;4605253;29;21195;-65
2021/05/31 00:36:39;;;;;;;18.40;12.05;;;12.90;99.90;;;;;;4606791;28;20654;-66
2021/05/31 00:40:25;;;;;;;15.43;10.15;;;12.90;99.90;;;;;;4678095;28;21021;-66
2021/05/31 00:44:04;;;;;;;17.98;11.20;;;12.90;99.90;;;;;;4708136;28;20573;-66
2021/05/31 00:51:50;;;;;;;17.05;11.50;;;12.70;99.90;;;;;;4610545;29;20572;-66
2021/05/31 00:55:47;;;;;;;16.88;11.13;;;12.50;99.90;;;;;;4646981;28;20670;-66
2021/05/31 00:59:29;;;;;;;18.58;12.05;;;12.40;99.90;;;;;;4633390;29;20204;-66
2021/05/31 01:14:36;;;;;;;14.15;10.55;;;12.50;99.90;;;;;;4667944;28;21045;-66
2021/05/31 01:18:18;;;;;;;14.88;10.77;;;12.40;99.90;;;;;;4681733;28;20688;-66
2021/05/31 01:22:09;;;;;;;18.15;11.40;;;12.30;99.90;;;;;;4651021;28;20541;-65
2021/05/31 01:26:08;;;;;;;17.95;11.45;;;12.20;99.90;;;;;;4675466;28;20736;-64
2021/05/31 01:33:16;;;;;;;17.52;11.70;;;12.00;99.90;;;;;;4749091;28;20596;-65
2021/05/31 01:37:15;;;;;;;16.23;10.82;;;11.90;99.90;;;;;;4673986;28;20582;-64
2021/05/31 01:44:52;;;;;;;17.25;12.38;;;11.80;99.90;;;;;;4653543;28;20563;-64
2021/05/31 01:48:24;;;;;;;20.73;12.70;;;11.70;99.90;;;;;;4656115;28;20618;-64
2021/05/31 01:52:21;;;;;;;18.90;12.85;;;11.60;99.90;;;;;;4709952;28;20214;-64
2021/05/31 01:59:30;;;;;;;16.80;11.85;;;11.50;99.90;;;;;;4620852;29;20586;-64
2021/05/31 02:03:16;;;;;;;25.35;13.95;;;11.60;99.90;;;;;;4691820;28;20722;-64
2021/05/31 02:10:51;;;;;;;23.02;12.68;;;11.60;99.90;;;;;;4680269;28;20552;-65
2021/05/31 02:14:38;;;;;;;17.35;11.43;;;11.80;99.90;;;;;;4738469;28;20613;-65
2021/05/31 02:18:34;;;;;;;15.40;10.23;;;11.70;99.90;;;;;;4685521;28;20699;-65
2021/05/31 02:22:23;;;;;;;18.10;10.77;;;11.60;99.90;;;;;;4711497;28;20572;-65
2021/05/31 02:26:07;;;;;;;17.98;12.43;;;11.70;99.90;;;;;;4599810;29;21036;-65
2021/05/31 02:29:34;;;;;;;18.98;12.50;;;11.60;99.90;;;;;;4576056;29;20674;-66
2021/05/31 02:37:05;;;;;;;17.58;11.13;;;11.60;99.90;;;;;;4639438;29;20736;-65
2021/05/31 02:40:38;;;;;;;16.77;11.30;;;11.60;99.90;;;;;;4607039;28;21084;-65
2021/05/31 02:44:34;;;;;;;17.20;11.98;;;11.70;99.90;;;;;;4599598;29;20209;-65
2021/05/31 02:47:57;;;;;;;22.60;12.90;;;11.70;99.90;;;;;;4625375;29;20279;-65
2021/05/31 02:51:42;;;;;;;16.45;12.23;;;11.70;99.90;;;;;;4650391;29;20396;-66
2021/05/31 02:55:27;;;;;;;21.25;13.45;;;11.60;99.90;;;;;;4700277;28;21213;-66
2021/05/31 02:59:15;;;;;;;19.25;12.02;;;11.70;99.90;;;;;;4604938;29;20240;-65
2021/05/31 03:03:01;;;;;;;17.50;11.60;;;11.50;99.90;;;;;;4568435;29;20280;-65
2021/05/31 03:06:36;;;;;;;19.67;13.05;;;11.50;99.90;;;;;;4687038;28;20197;-66
2021/05/31 03:10:26;;;;;;;18.17;11.40;;;11.50;99.90;;;;;;4735911;28;20564;-66
2021/05/31 03:14:31;;;;;;;20.88;12.20;;;11.50;99.90;;;;;;4703852;28;20730;-65
2021/05/31 03:18:39;;;;;;;19.60;12.30;;;11.50;99.90;;;;;;4605094;29;20707;-65
2021/05/31 03:22:12;;;;;;;17.50;11.60;;;11.40;99.90;;;;;;4580087;29;20637;-65
2021/05/31 03:26:04;;;;;;;18.20;11.75;;;11.30;99.90;;;;;;4646316;28;20555;-65
2021/05/31 03:33:43;;;;;;;21.45;13.02;;;11.60;99.90;;;;;;4681520;28;21003;-65
2021/05/31 03:37:19;;;;;;;19.00;11.73;;;11.60;99.90;;;;;;4641824;28;20330;-65
2021/05/31 03:41:17;;;;;;;17.40;11.52;;;11.60;99.90;;;;;;4660469;28;20980;-66
2021/05/31 03:44:57;;;;;;;15.32;11.23;;;11.60;99.90;;;;;;4722329;28;20356;-66
2021/05/31 03:48:53;;;;;;;16.23;10.77;;;11.60;99.90;;;;;;4725368;28;20506;-66
2021/05/31 03:52:53;;;;;;;18.73;11.63;;;11.70;99.90;;;;;;4699506;28;21014;-66
2021/05/31 03:55:59;;;;;;;16.10;11.05;;;11.80;99.90;;;;;;4659224;28;20928;-66
2021/05/31 03:59:18;;;;;;;17.20;9.90;;;12.30;99.90;;;;;;4722443;28;20189;-66
2021/05/31 04:03:04;;;;;;;14.38;8.77;;;13.80;99.90;;;;;;4721477;28;20189;-66
2021/05/31 04:14:05;;;;;;;10.50;8.73;;;18.30;99.90;;;;;;4723045;28;20638;-66
2021/05/31 04:17:47;;;;;;;9.63;7.20;;;20.50;99.90;;;;;;4609924;29;20860;-66
2021/05/31 04:21:44;;;;;;;12.60;8.23;;;20.90;1.00;;;;;;4646541;28;21237;-66
2021/05/31 04:25:40;;;;;;;9.23;7.37;;;20.80;1.00;;;;;;4730538;28;21339;-66
2021/05/31 04:29:02;;;;;;;9.47;7.63;;;21.80;1.00;;;;;;4685593;28;21014;-66
2021/05/31 04:32:49;;;;;;;7.63;6.80;;;22.10;1.00;;;;;;4657142;29;20751;-66
2021/05/31 04:36:22;;;;;;;8.43;7.53;;;23.00;1.00;;;;;;4593112;29;20470;-66
2021/05/31 04:40:00;;;;;;;;;;;;;;;;;;;;;
2021/05/31 04:44:05;;;;;;;;;;;;;;;;;;;;;
2021/05/31 04:51:43;;;;;;;;;;;;;;;;;;;;;
2021/05/31 04:59:14;;;;;;;8.47;6.57;;;22.10;1.00;;;;;;4606619;29;20453;-66
2021/05/31 05:06:38;;;;;;;;;;;;;;;;;;;;;
2021/05/31 05:10:13;;;;;;;7.30;6.60;;;22.70;1.00;;;;;;4604827;29;21353;-66
2021/05/31 05:14:09;;;;;;;9.33;6.50;;;23.20;1.00;;;;;;4599236;29;20921;-67
2021/05/31 05:18:08;;;;;;;10.30;6.60;;;23.70;1.00;;;;;;4548923;29;20450;-67
2021/05/31 05:21:41;;;;;;;7.23;5.83;;;24.30;1.00;;;;;;4622738;28;20917;-67
2021/05/31 05:25:30;;;;;;;7.20;5.97;;;23.10;1.00;;;;;;4648857;28;21485;-66
2021/05/31 05:32:49;;;;;;;5.90;5.30;;;22.80;1.00;;;;;;4653746;28;20802;-66
2021/05/31 05:50:24;;;;;;;6.03;5.40;;;23.60;1.00;;;;;;4528451;29;21357;-66
2021/05/31 05:54:08;;;;;;;7.50;5.90;;;25.60;1.00;;;;;;4525893;29;20769;-66
2021/05/31 05:57:33;;;;;;;6.13;5.53;;;25.90;1.00;;;;;;4611776;29;20894;-66
2021/05/31 06:00:59;;;;;;;7.03;5.03;;;26.10;1.00;;;;;;4695931;28;20927;-66
2021/05/31 06:38:33;;;;;;;8.67;4.53;;;24.50;1.00;;;;;;4660172;28;20476;-67
2021/05/31 06:42:14;;;;;;;4.93;3.83;;;25.40;1.00;;;;;;4658419;28;20481;-65
2021/05/31 06:45:28;;;;;;;4.33;3.23;;;26.40;1.00;;;;;;4607766;28;20818;-67
2021/05/31 06:49:23;;;;;;;3.23;2.93;;;26.80;1.00;;;;;;4585144;29;20656;-67
2021/05/31 06:52:55;;;;;;;3.50;2.93;;;25.80;1.00;;;;;;4549003;28;21045;-66
2021/05/31 06:56:23;;;;;;;3.90;3.30;;;24.90;1.00;;;;;;4450752;28;83790;-64
2021/05/31 06:59:59;;;;;;;3.17;2.57;;;25.40;1.00;;;;;;4550701;29;20930;-65
2021/05/31 07:03:50;;;;;;;3.20;2.87;;;25.50;1.00;;;;;;4482268;29;21217;-65
2021/05/31 07:07:36;;;;;;;3.77;2.70;;;25.40;1.00;;;;;;4447953;29;20734;-64
2021/05/31 07:11:18;;;;;;;2.70;2.50;;;26.50;1.00;;;;;;4413718;29;20560;-65
2021/05/31 07:14:44;;;;;;;3.30;2.40;;;25.20;1.00;;;;;;4492857;29;20742;-68
2021/05/31 07:18:14;;;;;;;3.73;2.70;;;25.20;1.00;;;;;;4497183;29;20946;-67
2021/05/31 07:25:07;;;;;;;3.90;2.90;;;26.20;1.00;;;;;;4484510;29;21421;-66
2021/05/31 07:31:41;;;;;;;2.60;2.40;;;29.00;1.00;;;;;;4537839;29;20923;-66
2021/05/31 07:35:07;;;;;;;2.93;2.63;;;26.90;1.00;;;;;;4509449;29;20997;-65
2021/05/31 07:38:59;;;;;;;3.00;2.57;;;24.80;1.00;;;;;;4577272;29;20788;-66
2021/05/31 07:48:35;;;;;;;4.60;2.53;;;20.90;1.00;;;;;;4571330;29;20947;-66
2021/05/31 07:55:32;;;;;;;3.80;3.23;;;21.60;1.00;;;;;;4680820;28;21039;-65
2021/05/31 07:58:59;;;;;;;3.20;2.53;;;21.30;1.00;;;;;;4707763;28;20845;-66
2021/05/31 08:02:24;;;;;;;3.47;2.60;;;19.80;1.00;;;;;;4693517;28;20924;-68
2021/05/31 08:09:15;;;;;;;2.43;2.23;;;18.10;1.00;;;;;;4705526;28;20650;-66
2021/05/31 08:12:58;;;;;;;2.13;1.73;;;18.10;1.00;;;;;;4604203;28;20426;-68
2021/05/31 08:16:57;;;;;;;3.20;2.30;;;18.60;1.00;;;;;;4557219;29;20937;-66
2021/05/31 08:20:50;;;;;;;3.10;2.57;;;18.50;1.00;;;;;;4611027;28;20459;-66
2021/05/31 08:24:37;;;;;;;4.03;2.20;;;19.10;1.00;;;;;;4618514;28;20989;-67
2021/05/31 08:27:53;;;;;;;3.10;2.00;;;19.30;1.00;;;;;;4722181;28;20983;-67
2021/05/31 08:31:00;;;;;;;2.60;1.87;;;19.40;1.00;;;;;;4688378;28;20514;-67
2021/05/31 08:34:33;;;;;;;3.33;2.40;;;19.10;1.00;;;;;;4658937;28;20817;-66
2021/05/31 08:38:10;;;;;;;2.33;2.13;;;19.10;1.00;;;;;;4692343;28;20874;-69
2021/05/31 08:41:55;;;;;;;3.30;2.60;;;19.20;1.00;;;;;;4684826;28;20492;-63
2021/05/31 08:46:04;;;;;;;2.87;2.07;;;19.40;1.00;;;;;;4673411;28;20970;-63
2021/05/31 08:49:41;;;;;;;2.80;2.40;;;19.60;1.00;;;;;;4595550;29;20873;-64
